Time;durP1;ratioP1;P1;durP2;ratioP2;P2;SDS_P1;SDS_P2;PMS_P1;PMS_P2;Temp;Humidity;BMP_temperature;BMP_pressure;BME280_temperature;BME280_humidity;BME280_pressure;Samples;Min_cycle;Max_cycle;Signal;HPM_P1;HPM_P2
2022/01/24 00:01:46;;;;;;;;;;;;;;;4.82;100.00;100628.44;5074229;28;19924;-80
2022/01/24 00:04:13;;;;;;;;;;;;;;;4.85;100.00;100629.69;5058011;28;19931;-79
2022/01/24 00:06:41;;;;;;;;;;;;;;;4.66;100.00;100627.53;5075906;28;19979;-79
2022/01/24 00:09:10;;;;;;;;;;;;;;;4.58;100.00;100625.69;5075681;28;19925;-79
2022/01/24 00:12:05;;;;;;;;;;;;;;;4.66;100.00;100633.06;5057765;28;19978;-79
2022/01/24 00:17:10;;;;;;;;;;;;;;;4.48;100.00;100637.22;5074410;28;19970;-79
2022/01/24 00:27:58;;;;;;;;;;;;;;;4.49;100.00;100649.91;5094523;28;20015;-79
2022/01/24 00:30:25;;;;;;;;;;;;;;;4.54;100.00;100652.47;5077661;28;19935;-79
2022/01/24 00:32:52;;;;;;;;;;;;;;;4.68;100.00;100643.81;5094003;28;19928;-80
2022/01/24 00:35:19;;;;;;;;;;;;;;;4.69;100.00;100643.47;5093853;28;19973;-80
2022/01/24 00:37:47;;;;;;;;;;;;;;;4.67;100.00;100645.75;5094197;28;19959;-80
2022/01/24 00:40:15;;;;;;;;;;;;;;;4.33;100.00;100646.19;5077335;28;20061;-79
2022/01/24 00:42:58;;;;;;;;;;;;;;;4.38;100.00;100642.38;5093832;28;19924;-79
2022/01/24 00:55:40;;;;;;;;;;;;;;;4.62;100.00;100637.69;5095003;28;20428;-79
2022/01/24 00:58:07;;;;;;;;;;;;;;;4.44;100.00;100643.81;5094877;28;19935;-80
2022/01/24 01:00:35;;;;;;;;;;;;;;;4.38;100.00;100648.75;5094853;28;20333;-79
2022/01/24 01:03:03;;;;;;;;;;;;;;;4.40;100.00;100640.91;5094830;28;20009;-78
2022/01/24 01:18:51;;;;;;;;;;;;;;;4.50;100.00;100640.44;5094925;28;19924;-79
2022/01/24 01:21:18;;;;;;;;;;;;;;;4.59;100.00;100630.06;5093194;28;20577;-79
2022/01/24 01:23:52;;;;;;;;;;;;;;;4.49;100.00;100622.22;5093156;28;19924;-79
2022/01/24 01:28:56;;;;;;;;;;;;;;;4.49;100.00;100633.31;5094424;28;19931;-79
2022/01/24 01:31:33;;;;;;;;;;;;;;;4.34;100.00;100625.69;5092381;28;19946;-78
2022/01/24 01:55:40;;;;;;;;;;;;;;;4.34;100.00;100622.09;5092759;28;19931;-78
2022/01/24 01:58:08;;;;;;;;;;;;;;;4.35;100.00;100627.28;5076221;28;20369;-78
2022/01/24 02:00:38;;;;;;;;;;;;;;;4.14;100.00;100617.44;5093648;28;19923;-79
2022/01/24 02:03:06;;;;;;;;;;;;;;;4.28;100.00;100618.75;5076610;28;20277;-78
2022/01/24 02:05:33;;;;;;;;;;;;;;;4.09;100.00;100621.25;5075897;28;19924;-78
2022/01/24 02:08:00;;;;;;;;;;;;;;;4.22;100.00;100616.56;5092831;28;19924;-78
2022/01/24 02:10:27;;;;;;;;;;;;;;;4.02;100.00;100612.72;5075610;28;19932;-78
2022/01/24 02:12:56;;;;;;;;;;;;;;;4.15;100.00;100617.09;5092727;28;19924;-78
2022/01/24 02:15:32;;;;;;;;;;;;;;;4.10;100.00;100620.13;5092643;28;19968;-78
2022/01/24 02:18:10;;;;;;;;;;;;;;;4.16;100.00;100624.28;5092848;28;19924;-79
2022/01/24 02:21:06;;;;;;;;;;;;;;;4.30;100.00;100619.19;5092346;28;19924;-79
2022/01/24 02:26:00;;;;;;;;;;;;;;;3.96;100.00;100614.09;5082944;28;19924;-78
2022/01/24 02:28:32;;;;;;;;;;;;;;;3.96;100.00;100607.75;5072059;28;19978;-78
2022/01/24 02:33:32;;;;;;;;;;;;;;;4.13;100.00;100613.09;5072743;28;19971;-78
2022/01/24 02:35:59;;;;;;;;;;;;;;;4.20;100.00;100622.44;5073581;28;19924;-78
2022/01/24 02:38:47;;;;;;;;;;;;;;;4.25;100.00;100616.69;5072341;28;19924;-78
2022/01/24 02:49:29;;;;;;;;;;;;;;;4.20;100.00;100622.44;5076006;28;19929;-79
2022/01/24 02:52:03;;;;;;;;;;;;;;;4.00;100.00;100626.06;5075983;28;20373;-78
2022/01/24 02:54:32;;;;;;;;;;;;;;;4.12;100.00;100628.88;5075480;28;19928;-78
2022/01/24 02:56:59;;;;;;;;;;;;;;;4.23;100.00;100618.97;5075940;28;20034;-78
2022/01/24 02:59:27;;;;;;;;;;;;;;;4.27;100.00;100619.09;5077268;28;19931;-78
2022/01/24 03:01:54;;;;;;;;;;;;;;;4.21;100.00;100618.50;5075683;28;20019;-79
2022/01/24 03:04:21;;;;;;;;;;;;;;;4.03;100.00;100614.31;5076918;28;19925;-78
2022/01/24 03:06:48;;;;;;;;;;;;;;;4.01;100.00;100619.41;5075524;28;20217;-78
2022/01/24 03:09:15;;;;;;;;;;;;;;;4.12;100.00;100628.06;5059154;28;19963;-79
2022/01/24 03:14:16;;;;;;;;;;;;;;;4.15;100.00;100611.56;5075686;28;19924;-78
2022/01/24 03:16:44;;;;;;;;;;;;;;;4.19;100.00;100612.53;5075532;28;19924;-78
2022/01/24 03:19:11;;;;;;;;;;;;;;;4.20;100.00;100608.59;5075471;28;20023;-78
2022/01/24 03:21:38;;;;;;;;;;;;;;;4.29;100.00;100611.25;5074798;28;19960;-78
2022/01/24 03:24:05;;;;;;;;;;;;;;;4.26;100.00;100604.44;5058823;28;20306;-78
2022/01/24 03:26:36;;;;;;;;;;;;;;;4.24;100.00;100609.50;5073599;28;20283;-78
2022/01/24 03:29:04;;;;;;;;;;;;;;;4.22;100.00;100606.31;5096748;28;19951;-78
2022/01/24 03:31:33;;;;;;;;;;;;;;;4.02;100.00;100601.66;5078677;28;19931;-78
2022/01/24 03:34:04;;;;;;;;;;;;;;;3.86;100.00;100605.44;5095658;28;19924;-78
2022/01/24 03:36:33;;;;;;;;;;;;;;;3.76;100.00;100603.91;5095197;28;20272;-78
2022/01/24 03:39:00;;;;;;;;;;;;;;;3.20;100.00;100601.81;5078784;28;19924;-78
2022/01/24 03:41:28;;;;;;;;;;;;;;;2.87;100.00;100603.72;5095981;28;19928;-78
2022/01/24 03:44:02;;;;;;;;;;;;;;;2.87;100.00;100610.06;5078700;28;20011;-78
2022/01/24 03:46:46;;;;;;;;;;;;;;;2.71;100.00;100602.69;5078386;28;19931;-77
2022/01/24 03:49:45;;;;;;;;;;;;;;;2.63;100.00;100607.13;5095981;28;19947;-78
2022/01/24 03:52:00;;;;;;;;;;;;;;;2.59;100.00;100602.63;5094673;28;20402;-78
2022/01/24 03:54:27;;;;;;;;;;;;;;;2.86;100.00;100607.63;5094636;28;19935;-78
2022/01/24 03:56:54;;;;;;;;;;;;;;;2.94;100.00;100609.53;5094894;28;20514;-78
2022/01/24 03:59:21;;;;;;;;;;;;;;;3.05;100.00;100607.97;5061375;28;19997;-78
2022/01/24 04:01:48;;;;;;;;;;;;;;;2.98;100.00;100607.69;5061094;28;20441;-78
2022/01/24 04:04:15;;;;;;;;;;;;;;;3.02;100.00;100612.22;5096261;28;20314;-78
2022/01/24 04:06:42;;;;;;;;;;;;;;;3.07;100.00;100616.72;5094516;28;19978;-78
2022/01/24 04:09:10;;;;;;;;;;;;;;;3.28;100.00;100615.59;5094813;28;20007;-78
2022/01/24 04:11:40;;;;;;;;;;;;;;;3.21;100.00;100611.75;5095708;28;19928;-78
2022/01/24 04:14:25;;;;;;;;;;;;;;;3.30;100.00;100606.97;5094604;28;19931;-77
2022/01/24 04:22:12;;;;;;;;;;;;;;;3.54;100.00;100607.06;5094373;28;19924;-78
2022/01/24 04:24:40;;;;;;;;;;;;;;;3.26;100.00;100603.25;5094149;28;19924;-78
2022/01/24 04:27:08;;;;;;;;;;;;;;;3.26;100.00;100606.00;5075242;28;19924;-78
2022/01/24 04:29:35;;;;;;;;;;;;;;;3.28;100.00;100609.25;5074047;28;19925;-78
2022/01/24 04:32:03;;;;;;;;;;;;;;;3.37;100.00;100612.75;5073913;28;19924;-78
2022/01/24 04:34:30;;;;;;;;;;;;;;;3.66;100.00;100618.16;5073852;28;19932;-78
2022/01/24 04:36:57;;;;;;;;;;;;;;;3.77;100.00;100616.59;5073716;28;19928;-78
2022/01/24 04:39:24;;;;;;;;;;;;;;;3.88;100.00;100614.19;5057554;28;19924;-78
2022/01/24 04:41:54;;;;;;;;;;;;;;;3.88;100.00;100612.22;5074946;28;20344;-78
2022/01/24 04:54:54;;;;;;;;;;;;;;;3.73;100.00;100618.41;5074536;28;19931;-78
2022/01/24 04:57:22;;;;;;;;;;;;;;;3.88;100.00;100612.22;5073326;28;20020;-78
2022/01/24 04:59:51;;;;;;;;;;;;;;;3.72;100.00;100608.50;5057032;28;19928;-78
2022/01/24 05:02:20;;;;;;;;;;;;;;;3.74;100.00;100618.06;5073263;28;20283;-78
2022/01/24 05:04:47;;;;;;;;;;;;;;;3.83;100.00;100623.53;5056563;28;19924;-78
2022/01/24 05:07:15;;;;;;;;;;;;;;;3.88;100.00;100614.97;5055472;28;20595;-78
2022/01/24 05:09:59;;;;;;;;;;;;;;;3.86;100.00;100614.53;5056607;28;19924;-78
2022/01/24 05:25:58;;;;;;;;;;;;;;;3.40;100.00;100623.94;5054113;28;20014;-77
2022/01/24 05:28:26;;;;;;;;;;;;;;;3.62;100.00;100631.84;5090855;28;19997;-77
2022/01/24 05:30:54;;;;;;;;;;;;;;;3.71;100.00;100637.31;5076161;28;20015;-77
2022/01/24 05:33:21;;;;;;;;;;;;;;;3.70;100.00;100633.72;5076065;28;20271;-77
2022/01/24 05:35:48;;;;;;;;;;;;;;;3.76;100.00;100642.59;5059768;28;20027;-77
2022/01/24 05:38:15;;;;;;;;;;;;;;;3.83;100.00;100642.88;5076206;28;20337;-77
2022/01/24 05:40:43;;;;;;;;;;;;;;;3.71;100.00;100645.59;5072842;28;19931;-77
2022/01/24 05:43:11;;;;;;;;;;;;;;;3.40;100.00;100634.97;5072514;28;19925;-77
2022/01/24 05:45:38;;;;;;;;;;;;;;;3.21;100.00;100636.63;5072584;28;19924;-77
2022/01/24 05:48:30;;;;;;;;;;;;;;;3.15;100.00;100635.97;5038945;28;20284;-77
2022/01/24 05:50:58;;;;;;;;;;;;;;;3.52;100.00;100635.03;5055865;28;20309;-77
2022/01/24 05:53:25;;;;;;;;;;;;;;;3.67;100.00;100630.81;5072442;28;19954;-77
2022/01/24 05:55:53;;;;;;;;;;;;;;;3.91;100.00;100630.91;5072244;28;20295;-77
2022/01/24 05:58:20;;;;;;;;;;;;;;;3.72;100.00;100642.50;5073712;28;20431;-77
2022/01/24 06:00:47;;;;;;;;;;;;;;;3.69;100.00;100631.31;5073167;28;20333;-77
2022/01/24 06:03:14;;;;;;;;;;;;;;;4.02;100.00;100643.16;5073668;28;20371;-77
2022/01/24 06:05:42;;;;;;;;;;;;;;;4.12;100.00;100644.69;5074270;28;19924;-77
2022/01/24 06:08:08;;;;;;;;;;;;;;;4.11;100.00;100645.81;5064160;28;20042;-77
2022/01/24 06:10:37;;;;;;;;;;;;;;;4.15;100.00;100653.06;5082977;28;19928;-77
2022/01/24 06:13:06;;;;;;;;;;;;;;;4.15;100.00;100642.00;5089834;28;19931;-77
2022/01/24 06:15:34;;;;;;;;;;;;;;;4.16;100.00;100649.19;5080838;28;19932;-77
2022/01/24 06:18:01;;;;;;;;;;;;;;;4.17;100.00;100645.25;5086612;28;19932;-78
2022/01/24 06:20:28;;;;;;;;;;;;;;;4.21;100.00;100645.38;5083175;28;19932;-77
2022/01/24 06:22:55;;;;;;;;;;;;;;;4.10;100.00;100650.56;5043479;28;20375;-77
2022/01/24 06:25:24;;;;;;;;;;;;;;;3.86;100.00;100642.19;5056872;28;19925;-81
2022/01/24 06:27:52;;;;;;;;;;;;;;;3.73;100.00;100644.09;5057132;28;19924;-81
2022/01/24 06:30:19;;;;;;;;;;;;;;;3.61;100.00;100646.00;5040119;28;20375;-82
2022/01/24 06:32:46;;;;;;;;;;;;;;;3.52;100.00;100648.03;5056657;28;19928;-80
2022/01/24 06:35:14;;;;;;;;;;;;;;;3.30;100.00;100651.16;5056671;28;19931;-79
2022/01/24 06:37:41;;;;;;;;;;;;;;;3.22;100.00;100649.28;5054054;28;20432;-81
2022/01/24 06:40:10;;;;;;;;;;;;;;;2.97;100.00;100651.06;5058525;28;19978;-79
2022/01/24 06:42:38;;;;;;;;;;;;;;;3.25;100.00;100654.13;5077333;28;19925;-79
2022/01/24 06:45:06;;;;;;;;;;;;;;;3.49;100.00;100649.53;5075834;28;19925;-80
2022/01/24 06:47:33;;;;;;;;;;;;;;;3.41;100.00;100655.13;5076971;28;19924;-79
2022/01/24 06:49:59;;;;;;;;;;;;;;;3.31;100.00;100652.78;5059069;28;19975;-79
2022/01/24 06:52:26;;;;;;;;;;;;;;;3.44;100.00;100658.03;5042661;28;19924;-79
2022/01/24 06:54:54;;;;;;;;;;;;;;;3.35;100.00;100664.75;5075555;28;20425;-79
2022/01/24 06:57:21;;;;;;;;;;;;;;;3.66;100.00;100654.09;5075765;28;20042;-79
2022/01/24 06:59:48;;;;;;;;;;;;;;;3.58;100.00;100661.31;5084058;28;19938;-79
2022/01/24 07:02:15;;;;;;;;;;;;;;;3.61;100.00;100660.63;5079213;28;19924;-79
2022/01/24 07:04:43;;;;;;;;;;;;;;;3.41;100.00;100663.41;5085245;28;19925;-79
2022/01/24 07:07:11;;;;;;;;;;;;;;;3.34;100.00;100663.16;5077567;28;19928;-78
2022/01/24 07:09:38;;;;;;;;;;;;;;;3.29;100.00;100666.91;5078043;28;20046;-79
2022/01/24 07:12:07;;;;;;;;;;;;;;;3.31;100.00;100658.31;5084697;28;20394;-79
2022/01/24 07:14:34;;;;;;;;;;;;;;;3.22;100.00;100654.78;5080114;28;20271;-79
2022/01/24 07:17:11;;;;;;;;;;;;;;;3.24;100.00;100669.09;5088141;28;19924;-79
2022/01/24 07:19:38;;;;;;;;;;;;;;;3.40;100.00;100665.38;5058915;28;19929;-78
2022/01/24 07:22:05;;;;;;;;;;;;;;;3.55;100.00;100675.00;5083242;28;19931;-79
2022/01/24 07:24:33;;;;;;;;;;;;;;;3.55;100.00;100677.75;5079018;28;19966;-79
2022/01/24 07:27:00;;;;;;;;;;;;;;;3.55;100.00;100675.00;5095567;28;20398;-79
2022/01/24 07:29:28;;;;;;;;;;;;;;;3.41;100.00;100677.22;5094526;28;19974;-78
2022/01/24 07:31:56;;;;;;;;;;;;;;;3.63;100.00;100679.66;5095429;28;19959;-79
2022/01/24 07:34:23;;;;;;;;;;;;;;;3.85;100.00;100679.28;5094544;28;19924;-79
2022/01/24 07:36:51;;;;;;;;;;;;;;;3.79;100.00;100675.09;5076355;28;19934;-79
2022/01/24 07:39:19;;;;;;;;;;;;;;;3.97;100.00;100676.53;5075076;28;19974;-79
2022/01/24 07:41:47;;;;;;;;;;;;;;;3.97;100.00;100676.53;5076226;28;19931;-79
2022/01/24 07:44:20;;;;;;;;;;;;;;;3.92;100.00;100668.47;5076030;28;19925;-79
2022/01/24 07:46:47;;;;;;;;;;;;;;;3.94;100.00;100665.38;5072727;28;19925;-79
2022/01/24 07:49:14;;;;;;;;;;;;;;;3.96;100.00;100665.81;5077401;28;20018;-78
2022/01/24 07:51:42;;;;;;;;;;;;;;;4.01;100.00;100673.91;5065427;28;19927;-78
2022/01/24 07:54:09;;;;;;;;;;;;;;;4.04;100.00;100679.59;5076037;28;19924;-78
2022/01/24 07:56:37;;;;;;;;;;;;;;;4.07;100.00;100676.13;5086680;28;19924;-78
2022/01/24 07:59:04;;;;;;;;;;;;;;;4.11;100.00;100679.81;5096310;28;19924;-78
2022/01/24 08:01:31;;;;;;;;;;;;;;;4.19;100.00;100673.41;5095682;28;20016;-78
2022/01/24 08:03:59;;;;;;;;;;;;;;;4.28;100.00;100676.88;5095000;28;19951;-83
2022/01/24 08:06:26;;;;;;;;;;;;;;;4.24;100.00;100684.22;5095103;28;20027;-81
2022/01/24 08:08:56;;;;;;;;;;;;;;;3.94;100.00;100685.53;5095635;28;19924;-82
2022/01/24 08:11:23;;;;;;;;;;;;;;;3.93;100.00;100685.88;5063274;28;19925;-80
2022/01/24 08:13:52;;;;;;;;;;;;;;;4.16;100.00;100696.22;5022091;28;19935;-81
2022/01/24 08:16:20;;;;;;;;;;;;;;;4.10;100.00;100692.03;5038283;28;20299;-81
2022/01/24 08:18:51;;;;;;;;;;;;;;;4.27;100.00;100691.06;5071726;28;19924;-80
2022/01/24 08:21:19;;;;;;;;;;;;;;;4.20;100.00;100702.66;5078223;28;19930;-82
2022/01/24 08:23:46;;;;;;;;;;;;;;;4.18;100.00;100699.44;5067822;28;20038;-82
2022/01/24 08:26:13;;;;;;;;;;;;;;;4.26;100.00;100693.00;5082061;28;19925;-81
2022/01/24 08:28:40;;;;;;;;;;;;;;;4.33;100.00;100692.44;5081893;28;19928;-81
2022/01/24 08:31:08;;;;;;;;;;;;;;;4.38;100.00;100695.78;5057899;28;20334;-81
2022/01/24 08:33:35;;;;;;;;;;;;;;;4.41;100.00;100695.09;5076041;28;19970;-81
2022/01/24 08:36:03;;;;;;;;;;;;;;;4.35;100.00;100696.47;5082494;28;19933;-81
2022/01/24 08:38:34;;;;;;;;;;;;;;;4.30;100.00;100685.63;5084918;28;19928;-81
2022/01/24 08:41:07;;;;;;;;;;;;;;;4.44;100.00;100686.09;5066683;28;19924;-81
2022/01/24 08:46:21;;;;;;;;;;;;;;;4.31;100.00;100692.78;5060773;28;19928;-81
2022/01/24 08:48:48;;;;;;;;;;;;;;;4.20;100.00;100693.56;5065734;28;19951;-80
2022/01/24 08:51:16;;;;;;;;;;;;;;;4.09;100.00;100689.63;5047646;28;19924;-80
2022/01/24 08:53:54;;;;;;;;;;;;;;;4.21;100.00;100693.22;5062555;28;19924;-80
2022/01/24 08:56:23;;;;;;;;;;;;;;;4.18;100.00;100699.44;5065562;28;19950;-80
2022/01/24 08:58:50;;;;;;;;;;;;;;;4.19;100.00;100698.28;5079827;28;20448;-80
2022/01/24 09:01:18;;;;;;;;;;;;;;;4.22;100.00;100697.59;5090912;28;19924;-83
2022/01/24 09:03:46;;;;;;;;;;;;;;;4.03;100.00;100708.38;5042794;28;19979;-83
2022/01/24 09:06:17;;;;;;;;;;;;;;;4.11;100.00;100704.72;5057095;28;19925;-82
2022/01/24 09:08:44;;;;;;;;;;;;;;;4.14;100.00;100701.28;5058557;28;19924;-81
2022/01/24 09:11:11;;;;;;;;;;;;;;;4.04;100.00;100706.44;5085664;28;20438;-83
2022/01/24 09:13:40;;;;;;;;;;;;;;;4.28;100.00;100704.53;5080773;28;19925;-83
2022/01/24 09:16:07;;;;;;;;;;;;;;;4.40;100.00;100704.56;5061644;28;19955;-82
2022/01/24 09:18:35;;;;;;;;;;;;;;;4.48;100.00;100706.44;5064381;28;19974;-81
2022/01/24 09:21:02;;;;;;;;;;;;;;;4.52;100.00;100710.13;5084002;28;19924;-81
2022/01/24 09:23:29;;;;;;;;;;;;;;;4.36;100.00;100709.16;5078920;28;19981;-81
2022/01/24 09:25:57;;;;;;;;;;;;;;;4.40;100.00;100707.34;5084126;28;19931;-81
2022/01/24 09:28:24;;;;;;;;;;;;;;;4.42;100.00;100704.22;5064325;28;19924;-82
2022/01/24 09:30:51;;;;;;;;;;;;;;;4.41;100.00;100708.94;5083325;28;19928;-82
2022/01/24 09:33:19;;;;;;;;;;;;;;;4.39;100.00;100708.47;5048128;28;20022;-81
2022/01/24 09:35:51;;;;;;;;;;;;;;;4.53;100.00;100711.72;5082905;28;19931;-81
2022/01/24 09:38:20;;;;;;;;;;;;;;;4.29;100.00;100711.69;5069615;28;20361;-82
2022/01/24 09:40:47;;;;;;;;;;;;;;;4.15;100.00;100713.16;5077659;28;19925;-82
2022/01/24 09:43:14;;;;;;;;;;;;;;;4.19;100.00;100711.31;5084579;28;20383;-82
2022/01/24 09:45:42;;;;;;;;;;;;;;;4.15;100.00;100721.47;5060567;28;19928;-82
2022/01/24 09:48:12;;;;;;;;;;;;;;;4.37;100.00;100727.41;5056456;28;19931;-82
2022/01/24 09:50:39;;;;;;;;;;;;;;;4.58;100.00;100730.91;5085997;28;19924;-82
2022/01/24 09:53:06;;;;;;;;;;;;;;;4.51;100.00;100719.59;5070468;28;19940;-82
2022/01/24 09:55:33;;;;;;;;;;;;;;;4.47;100.00;100717.84;5039501;28;19924;-82
2022/01/24 09:58:00;;;;;;;;;;;;;;;4.66;100.00;100710.59;5073853;28;19929;-82
2022/01/24 10:00:29;;;;;;;;;;;;;;;4.78;100.00;100702.31;5072088;28;19940;-81
2022/01/24 10:02:58;;;;;;;;;;;;;;;4.89;100.00;100708.97;5056566;28;20682;-82
2022/01/24 10:05:37;;;;;;;;;;;;;;;4.85;100.00;100713.59;5056313;28;19925;-83
2022/01/24 10:08:17;;;;;;;;;;;;;;;4.91;100.00;100715.00;5085149;28;20461;-83
2022/01/24 10:10:49;;;;;;;;;;;;;;;5.04;100.00;100713.03;5093979;28;19947;-82
2022/01/24 10:16:25;;;;;;;;;;;;;;;5.13;100.00;100713.72;5093858;28;19930;-82
2022/01/24 10:18:58;;;;;;;;;;;;;;;5.21;100.00;100718.34;5092785;28;20010;-82
2022/01/24 10:21:40;;;;;;;;;;;;;;;5.14;100.00;100724.47;5092731;28;19928;-82
2022/01/24 10:24:08;;;;;;;;;;;;;;;5.03;100.00;100719.72;5093943;28;19973;-82
2022/01/24 10:26:35;;;;;;;;;;;;;;;5.08;100.00;100712.00;5093021;28;20374;-79
2022/01/24 10:29:08;;;;;;;;;;;;;;;5.10;100.00;100722.72;5092816;28;20229;-83
2022/01/24 10:31:43;;;;;;;;;;;;;;;5.19;100.00;100727.00;5092954;28;20019;-83
2022/01/24 10:34:27;;;;;;;;;;;;;;;5.26;100.00;100726.41;5043519;28;20378;-82
2022/01/24 10:36:55;;;;;;;;;;;;;;;4.60;100.00;100725.81;5094173;28;19931;-82
2022/01/24 10:39:44;;;;;;;;;;;;;;;4.94;100.00;100728.16;5075880;28;19924;-82
2022/01/24 10:42:59;;;;;;;;;;;;;;;5.15;100.00;100723.28;5075696;28;19928;-82
2022/01/24 10:45:01;;;;;;;;;;;;;;;5.26;100.00;100724.44;5083705;28;19937;-82
2022/01/24 10:47:30;;;;;;;;;;;;;;;5.33;100.00;100721.88;5094202;28;19951;-82
2022/01/24 10:49:59;;;;;;;;;;;;;;;5.45;100.00;100715.53;5075793;28;19931;-82
2022/01/24 10:52:28;;;;;;;;;;;;;;;5.55;100.00;100715.84;5073353;28;19932;-83
2022/01/24 10:55:12;;;;;;;;;;;;;;;5.48;100.00;100718.38;5070270;28;20307;-82
2022/01/24 10:57:40;;;;;;;;;;;;;;;5.46;100.00;100717.94;5073687;28;20398;-84
2022/01/24 11:00:11;;;;;;;;;;;;;;;5.27;100.00;100709.41;5039578;28;19924;-81
2022/01/24 11:02:42;;;;;;;;;;;;;;;5.30;100.00;100713.47;5053642;28;19925;-83
2022/01/24 11:05:09;;;;;;;;;;;;;;;5.38;100.00;100715.28;5053645;28;19932;-81
2022/01/24 11:07:59;;;;;;;;;;;;;;;5.53;100.00;100704.28;5055839;28;19932;-82
2022/01/24 11:10:32;;;;;;;;;;;;;;;5.46;100.00;100706.03;5057017;28;19925;-84
2022/01/24 11:12:59;;;;;;;;;;;;;;;5.47;100.00;100708.47;5022592;28;20277;-84
2022/01/24 11:15:26;;;;;;;;;;;;;;;5.63;100.00;100704.94;5039508;28;19925;-84
2022/01/24 11:17:54;;;;;;;;;;;;;;;5.63;100.00;100709.31;5056053;28;20054;-82
2022/01/24 11:20:28;;;;;;;;;;;;;;;5.63;100.00;100709.31;5038835;28;19936;-82
2022/01/24 11:23:01;;;;;;;;;;;;;;;5.58;100.00;100706.81;5023966;28;20437;-83
2022/01/24 11:25:29;;;;;;;;;;;;;;;5.56;100.00;100698.03;5055863;28;19925;-84
2022/01/24 11:27:58;;;;;;;;;;;;;;;5.44;100.00;100703.63;5051786;28;19925;-84
2022/01/24 11:30:28;;;;;;;;;;;;;;;5.45;100.00;100710.75;5036073;28;20288;-86
2022/01/24 11:33:01;;;;;;;;;;;;;;;5.47;100.00;100711.22;5018894;28;20368;-84
2022/01/24 11:35:38;;;;;;;;;;;;;;;5.47;100.00;100708.47;5025724;28;19925;-82
2022/01/24 11:38:29;;;;;;;;;;;;;;;5.66;100.00;100695.94;5027708;28;20335;-83
2022/01/24 11:41:07;;;;;;;;;;;;;;;5.83;100.00;100706.78;5035220;28;19925;-83
2022/01/24 11:43:36;;;;;;;;;;;;;;;5.61;100.00;100702.53;5019560;28;19925;-80
2022/01/24 11:46:08;;;;;;;;;;;;;;;5.62;100.00;100703.34;5035598;28;19925;-87
2022/01/24 11:48:39;;;;;;;;;;;;;;;5.88;100.00;100707.31;5019013;28;20383;-82
2022/01/24 11:51:09;;;;;;;;;;;;;;;5.94;100.00;100700.34;5035901;28;19925;-83
2022/01/24 11:53:41;;;;;;;;;;;;;;;6.00;100.00;100696.16;5019234;28;19925;-82
2022/01/24 11:56:24;;;;;;;;;;;;;;;6.11;100.00;100694.50;5019513;28;19967;-84
2022/01/24 11:59:11;;;;;;;;;;;;;;;6.06;100.00;100699.50;5051760;28;20504;-90
2022/01/24 12:01:40;;;;;;;;;;;;;;;5.72;100.00;100697.28;5063251;28;19928;-84
2022/01/24 12:04:07;;;;;;;;;;;;;;;5.56;100.00;100694.44;5071176;28;20379;-83
2022/01/24 12:06:58;;;;;;;;;;;;;;;5.52;100.00;100699.09;5055187;28;19949;-82
2022/01/24 12:09:25;;;;;;;;;;;;;;;5.47;100.00;100694.59;5037807;28;19931;-82
2022/01/24 12:11:53;;;;;;;;;;;;;;;5.65;100.00;100697.09;5055462;28;19924;-83
2022/01/24 12:14:37;;;;;;;;;;;;;;;5.91;100.00;100689.19;5040298;28;19947;-83
2022/01/24 12:17:09;;;;;;;;;;;;;;;6.13;100.00;100688.59;5037900;28;19929;-83
2022/01/24 12:19:37;;;;;;;;;;;;;;;5.80;100.00;100683.25;5054401;28;19925;-83
2022/01/24 12:22:22;;;;;;;;;;;;;;;6.10;100.00;100683.75;5056016;28;19924;-82
2022/01/24 12:24:50;;;;;;;;;;;;;;;6.20;100.00;100674.91;5074334;28;19925;-83
2022/01/24 12:27:17;;;;;;;;;;;;;;;6.39;100.00;100669.47;5076484;28;19968;-84
2022/01/24 12:29:45;;;;;;;;;;;;;;;6.39;100.00;100677.81;5068575;28;19924;-83
2022/01/24 12:32:22;;;;;;;;;;;;;;;6.11;100.00;100679.81;5093971;28;19928;-81
2022/01/24 12:34:50;;;;;;;;;;;;;;;6.31;100.00;100667.66;5054475;28;19925;-83
2022/01/24 12:37:23;;;;;;;;;;;;;;;6.40;100.00;100673.84;5054068;28;19983;-83
2022/01/24 12:39:53;;;;;;;;;;;;;;;6.40;100.00;100665.53;5054422;28;19925;-83
2022/01/24 12:42:31;;;;;;;;;;;;;;;6.44;100.00;100660.84;5037651;28;19932;-83
2022/01/24 12:48:14;;;;;;;;;;;;;;;6.25;100.00;100653.25;5055352;28;19982;-83
2022/01/24 12:50:42;;;;;;;;;;;;;;;6.22;100.00;100655.94;5055672;28;20022;-83
2022/01/24 12:53:12;;;;;;;;;;;;;;;6.12;100.00;100645.34;5067441;28;19961;-83
2022/01/24 12:55:40;;;;;;;;;;;;;;;5.69;100.00;100643.34;5060694;28;19952;-83
2022/01/24 12:58:09;;;;;;;;;;;;;;;5.55;100.00;100643.75;5095397;28;19970;-83
2022/01/24 13:00:40;;;;;;;;;;;;;;;5.23;100.00;100644.75;5095157;28;19932;-83
2022/01/24 13:03:08;;;;;;;;;;;;;;;5.11;100.00;100655.06;5093706;28;19924;-83
2022/01/24 13:05:39;;;;;;;;;;;;;;;5.41;100.00;100643.31;5095255;28;19930;-83
2022/01/24 13:08:06;;;;;;;;;;;;;;;5.46;100.00;100648.63;5094826;28;19930;-83
2022/01/24 13:10:38;;;;;;;;;;;;;;;5.50;100.00;100645.94;5095176;28;19977;-83
2022/01/24 13:13:11;;;;;;;;;;;;;;;5.50;100.00;100640.41;5060438;28;19924;-83
2022/01/24 13:21:18;;;;;;;;;;;;;;;6.27;100.00;100633.47;5085074;28;19970;-82
2022/01/24 13:23:50;;;;;;;;;;;;;;;6.41;100.00;100637.41;5051119;28;20368;-83
2022/01/24 13:26:18;;;;;;;;;;;;;;;6.47;100.00;100635.16;5057198;28;19924;-83
2022/01/24 13:28:46;;;;;;;;;;;;;;;6.48;100.00;100636.78;5062782;28;19924;-83
2022/01/24 13:31:14;;;;;;;;;;;;;;;6.59;100.00;100624.75;5066891;28;20028;-84
2022/01/24 13:33:45;;;;;;;;;;;;;;;6.50;100.00;100615.00;5063880;28;20352;-83
2022/01/24 13:36:14;;;;;;;;;;;;;;;6.71;100.00;100621.09;5033628;28;20020;-84
2022/01/24 13:38:45;;;;;;;;;;;;;;;6.49;100.00;100622.53;5061330;28;19925;-83
2022/01/24 13:41:14;;;;;;;;;;;;;;;6.62;100.00;100614.91;5080473;28;19924;-83
2022/01/24 13:43:44;;;;;;;;;;;;;;;6.76;100.00;100616.06;5083162;28;20375;-83
2022/01/24 13:46:16;;;;;;;;;;;;;;;6.24;100.00;100625.84;5075663;28;19929;-83
2022/01/24 13:48:43;;;;;;;;;;;;;;;6.17;100.00;100618.13;5056709;28;19928;-83
2022/01/24 13:51:12;;;;;;;;;;;;;;;6.05;100.00;100614.63;5065241;28;20295;-83
2022/01/24 13:53:41;;;;;;;;;;;;;;;6.47;100.00;100613.75;5067390;28;19924;-85
2022/01/24 13:56:18;;;;;;;;;;;;;;;6.64;100.00;100618.94;5034129;28;19923;-84
2022/01/24 13:59:01;;;;;;;;;;;;;;;6.46;100.00;100614.09;5079717;28;19931;-85
2022/01/24 14:01:29;;;;;;;;;;;;;;;5.95;100.00;100606.84;5066874;28;19932;-84
2022/01/24 14:04:01;;;;;;;;;;;;;;;5.93;100.00;100620.25;5078912;28;19928;-83
2022/01/24 14:06:33;;;;;;;;;;;;;;;5.91;100.00;100614.25;5083239;28;20379;-84
2022/01/24 14:09:10;;;;;;;;;;;;;;;5.82;100.00;100619.97;5083924;28;19995;-85
2022/01/24 14:11:45;;;;;;;;;;;;;;;5.55;100.00;100626.28;5061813;28;20272;-84
2022/01/24 14:14:17;;;;;;;;;;;;;;;5.47;100.00;100619.75;5078936;28;20303;-84
2022/01/24 14:17:03;;;;;;;;;;;;;;;5.73;100.00;100616.50;5040164;28;19947;-84
2022/01/24 14:19:32;;;;;;;;;;;;;;;5.56;100.00;100622.34;5072383;28;20015;-84
2022/01/24 14:22:10;;;;;;;;;;;;;;;5.48;100.00;100621.34;5072336;28;19925;-84
2022/01/24 14:24:41;;;;;;;;;;;;;;;5.95;100.00;100621.53;5072505;28;19924;-84
2022/01/24 14:27:08;;;;;;;;;;;;;;;6.39;100.00;100616.72;5039756;28;19930;-84
2022/01/24 14:29:38;;;;;;;;;;;;;;;6.49;100.00;100613.38;5056065;28;19924;-84
2022/01/24 14:32:11;;;;;;;;;;;;;;;6.45;100.00;100610.50;5072521;28;19947;-82
2022/01/24 14:34:39;;;;;;;;;;;;;;;6.42;100.00;100607.66;5056372;28;20299;-83
2022/01/24 14:37:06;;;;;;;;;;;;;;;6.67;100.00;100607.09;5065165;28;19962;-82
2022/01/24 14:39:46;;;;;;;;;;;;;;;6.26;100.00;100602.09;5086093;28;20003;-78
2022/01/24 14:42:27;;;;;;;;;;;;;;;5.81;100.00;100609.19;5076739;28;20027;-78
2022/01/24 14:44:54;;;;;;;;;;;;;;;6.10;100.00;100608.81;5058577;28;20273;-78
2022/01/24 14:47:24;;;;;;;;;;;;;;;5.69;100.00;100609.25;5075277;28;20142;-78
2022/01/24 14:49:52;;;;;;;;;;;;;;;5.93;100.00;100614.69;5076137;28;19940;-78